Leon Schubert

Scout - Bayer Leverkusen
4 Dez 2028
Montag
Verarbeitung

Persönlichkeit

Anpassungsfähigkeit (4) Ehrgeiz (10) Kontroverse (9) Loyalität (20) Druck (20) Professionalität (12) Fairness (1) Temperament (7)

Profil

Trainerstil Demokratisch
Lizenz Kontinentale Pro
Entschlossenheit 10
Menschenführung 8
Motivation 13
Disziplin 11
Arbeitszufriedenheit
89%
Ermüdung
0%
Rolle Scout
Gehalt 58.5K p/W
Vertrag 14.03.2029

Leistung

Verhalten Gut
Trainingseffektivität
50%
Spielerentwicklung
50%
Verletzungsprävention
40%
Taktische Umsetzung
55%

Letzte Ereignisse

Nahm an einer Scouting-Besprechung teil jetzt
Nahm an einer Scouting-Besprechung teil jetzt
Nahm an einer Scouting-Besprechung teil jetzt
Spieler begutachtet jetzt
Spieler begutachtet jetzt
Spieler begutachtet jetzt
Spieler begutachtet jetzt
Spiel beobachtet jetzt

Aktuell beobachtet

247
Spieler Verein Status Fähigkeit Vertrauen Beobachtet Zuletzt beobachtet Letzte Stimme
Felipe Augusto KAA Gent Aktiv 141 / 142 40% 5 01.12.2028 -
Ayyoub Bouaddi Stoke City Aktiv 152 / 159 40% 2 01.12.2028 -
Kyrell Wilson Barnet Aktiv 129 / 122 40% 2 01.12.2028 -
Philipp Maybach Red Bull Salzburg Aktiv 110 / 126 40% 1 01.12.2028 -
Olivier Mambwa Young Boys Aktiv 117 / 125 40% 3 28.11.2028 -
Tommy Watson Cardiff City Aktiv 137 / 137 40% 4 28.11.2028 -
Tyler Fletcher Rotherham United Aktiv 118 / 128 40% 2 28.11.2028 -
Riquelme Thompson-Jones Accrington Stanley Aktiv 115 / 121 40% 1 27.11.2028 -
Veljko Milosavljević Bournemouth Aktiv 156 / 158 40% 1 27.11.2028 -
Chupete Málaga Aktiv 150 / 142 40% 2 26.11.2028 -
Matías Abaldo Ferencvaros Aktiv 128 / 140 40% 4 26.11.2028 -
Luis Otávio Orlando City Aktiv 130 / 135 40% 3 25.11.2028 -
Vitor Roque TSG Hoffenheim Aktiv 155 / 154 40% 5 23.11.2028 -
Ibrahim Osman Norwich City Aktiv 141 / 151 40% 2 23.11.2028 -
Nəriman Axundzadə Columbus Crew Aktiv 127 / 133 40% 3 22.11.2028 -
Amin Chiakha Rosenborg Aktiv 117 / 129 40% 3 22.11.2028 -
Martim Cunha Porto Aktiv 112 / 113 40% 1 22.11.2028 -
Thulani Manyama Portland Timbers Aktiv 130 / 125 40% 1 22.11.2028 -
Marc Bernal Sevilla Aktiv 156 / 153 40% 5 21.11.2028 -
Sindre Walle Egeli Udinese Aktiv 137 / 141 40% 2 18.11.2028 -
Umeh Emmanuel Zurich Aktiv 128 / 131 40% 2 17.11.2028 -
Chris Rigg West Ham United Aktiv 139 / 147 40% 1 17.11.2028 -
Sebastian Rodriguez Houston Dynamo Aktiv 122 / 114 40% 1 17.11.2028 -
Jorge Salinas Racing Santander Aktiv 138 / 141 40% 5 16.11.2028 -
Noah Markmann Esbjerg Aktiv 127 / 128 40% 2 16.11.2028 -
Nicolò Tresoldi Club Brugge Aktiv 150 / 147 40% 2 15.11.2028 -
Francesco Pio Esposito Frosinone Aktiv 159 / 152 40% 1 15.11.2028 -
Pau Cubarsí Real Sociedad Aktiv 170 / 171 40% 15 14.11.2028 -
Ryan Francisco Palmeiras Aktiv 114 / 133 40% 4 12.11.2028 -
Harry Gray Harrogate Town Aktiv 132 / 137 40% 2 12.11.2028 -
Edmund Baidoo St. Gallen Aktiv 127 / 130 40% 5 11.11.2028 -
Mihajlo Cvetković Club Brugge Aktiv 126 / 135 40% 3 11.11.2028 -
Trey Nyoni Rotherham United Aktiv 146 / 150 40% 6 10.11.2028 -
Jorthy Mokio ADO Den Haag Aktiv 130 / 138 40% 5 10.11.2028 -
Santiago Castro OGC Nice Aktiv 157 / 158 40% 1 10.11.2028 -
Jayden Danns Bradford City Aktiv 138 / 141 40% 2 09.11.2028 -
Norman Bassette Coventry City Aktiv 132 / 121 40% 1 09.11.2028 -
Eduardo Lozano Botafogo Aktiv 155 / 159 40% 3 05.11.2028 -
Celías Ingenthron Platense Aktiv 119 / 117 40% 2 04.11.2028 -
Leon Grgić Werder Bremen Aktiv 139 / 150 40% 1 04.11.2028 -
Marc Guiu Köln Aktiv 139 / 145 40% 1 04.11.2028 -
Matias Siltanen Malmo FF Aktiv 131 / 139 40% 6 02.11.2028 -
Andrija Bulatović Chamois Niortais Aktiv 130 / 143 40% 2 02.11.2028 -
Christian Kofane Hamburger SV Aktiv 148 / 157 40% 5 02.11.2028 -
Endrick Boca Juniors Aktiv 171 / 164 40% 7 31.10.2028 -
Mamadou Doumbia Rotherham United Aktiv 135 / 129 40% 1 31.10.2028 -
Sota Kitano Red Bull Salzburg Aktiv 135 / 131 40% 2 30.10.2028 -
Mikey Moore Stockport County Aktiv 136 / 146 40% 1 30.10.2028 -
Max Dean KAA Gent Aktiv 119 / 119 40% 2 29.10.2028 -
Xavier Biscayzacú Penarol Aktiv 125 / 128 40% 2 29.10.2028 -
Matías Fernández-Pardo Atalanta Aktiv 147 / 153 40% 1 28.10.2028 -
Peyton Miller New England Revolution Aktiv 107 / 133 40% 1 24.10.2028 -
Miguel Figueiredo Benfica Aktiv 125 / 135 40% 2 23.10.2028 -
Rayan Hamburger SV Aktiv 150 / 147 40% 4 21.10.2028 Beobachten
Idan Toklomati Charlotte Football Club Aktiv 139 / 135 40% 1 21.10.2028 -
Harrison Armstrong Ipswich Town Aktiv 136 / 147 40% 1 21.10.2028 -
Felipe Chávez Werder Bremen Aktiv 135 / 131 40% 1 19.10.2028 -
Marko Zebić Lucko Aktiv 112 / 126 40% 1 17.10.2028 -
Germán Barbas Racing Santander Aktiv 120 / 123 40% 1 17.10.2028 -
Giovanni Leoni Lincoln City Aktiv 148 / 154 40% 5 15.10.2028 -
Adrian Svanbäck BK Hacken Aktiv 119 / 128 40% 3 15.10.2028 -
Tobías Ramírez River Plate Aktiv 117 / 134 40% 1 15.10.2028 -
Babis Kostoulas Oxford United Aktiv 148 / 157 40% 2 10.10.2028 -
Facinet Conté Young Boys Aktiv 127 / 127 40% 1 10.10.2028 -
Yoan Bonny Porto Aktiv 153 / 157 40% 1 08.10.2028 -
Markus Walker FC Nordsjaelland Aktiv 125 / 124 40% 1 07.10.2028 -
Dor Turgeman Spartak Moscow Aktiv 128 / 134 40% 1 03.10.2028 -
Mateo Joseph Leeds United Aktiv 147 / 146 40% 1 26.09.2028 -
Pablo Felipe West Ham United Aktiv 145 / 150 40% 2 23.09.2028 -
Petter Nosa Dahl Rapid Wien Aktiv 130 / 133 40% 1 21.09.2028 -
Mohamed-Ali Cho Hull City Aktiv 145 / 153 40% 3 18.09.2028 -
Emersonn Ipswich Town Aktiv 132 / 138 40% 1 11.09.2028 -
Mathys Tel Tottenham Aktiv 148 / 155 40% 1 11.09.2028 -
Alejo Veliz Bahia Aktiv 146 / 143 40% 1 07.09.2028 -
Eli Junior Kroupi Bournemouth Aktiv 156 / 152 40% 1 06.09.2028 -
Juan Gauto Basel Aktiv 130 / 128 40% 1 04.09.2028 -
Yassir Zabiri Stade Rennais Aktiv 136 / 140 40% 1 04.09.2028 -
Carl Rushworth Aston Villa Aktiv 151 / 153 40% 1 31.07.2028 -
Joe Walsh Queens Park Rangers Aktiv 120 / 119 40% 1 31.07.2028 -
Jorge Cabezas Hurtado Watford Aktiv 127 / 123 40% 1 24.07.2028 -
Guillaume Restes Toulouse FC Aktiv 147 / 152 40% 1 20.06.2028 -
Maarten Vandevoordt RB Leipzig Aktiv 160 / 151 40% 1 20.06.2028 Mehr Infos nötig
Fábio Carvalho Brentford Aktiv 155 / 148 40% 2 14.06.2028 -
Matheus Cunha Manchester United Aktiv 171 / 163 40% 1 14.06.2028 -
Patrick Beach Melbourne City Aktiv 122 / 111 40% 1 02.06.2028 -
Chris Brady Ajax Aktiv 145 / 152 40% 1 02.06.2028 -
Woo-Yeong Jeong Union Berlin Verloren 150 / 139 62% 1 01.06.2028 -
Killian Cahill Leyton Orient Aktiv 111 / 112 40% 1 31.05.2028 -
Joe Whitworth Wigan Athletic Aktiv 119 / 130 40% 1 31.05.2028 -
Lucas Høgsberg RC Strasbourg Aktiv 142 / 138 40% 5 30.05.2028 -
Jan Bürger Northampton Town Aktiv 119 / 123 40% 8 28.05.2028 -
Ayden Heaven Portsmouth Aktiv 142 / 145 40% 4 26.05.2028 -
João Simões Sporting CP Aktiv 137 / 141 40% 4 23.05.2028 -
Andrey Ivlev Nizhniy Novgorod Aktiv 102 / 108 40% 2 18.05.2028 -
Thijs Kraaijeveld USM Alger Aktiv 134 / 123 40% 2 14.05.2028 -
Illaijh de Ruijter ADO Den Haag Aktiv 121 / 121 40% 2 11.05.2028 -
Kiani Inge Groningen Aktiv 116 / 117 40% 1 10.05.2028 -
Daniel Banjaqui Benfica Aktiv 120 / 128 40% 2 07.05.2028 -
Noahkai Banks FC Augsburg Aktiv 151 / 151 40% 3 06.05.2028 Beobachten
Thato Sibiya Orlando Pirates Aktiv 102 / 109 40% 1 02.05.2028 -
Honest Ahanor Atalanta Aktiv 137 / 146 40% 7 01.05.2028 -
Pape Diong Westerlo Aktiv 122 / 131 40% 1 01.05.2028 -
Héctor Fort Real Sociedad Aktiv 146 / 142 40% 4 26.04.2028 -
Christos Mouzakitis Hull City Aktiv 133 / 146 40% 1 22.04.2028 -
Josh Acheampong Everton Aktiv 137 / 142 40% 6 17.04.2028 -
Mohammed El Âdfaoui Westerlo Aktiv 114 / 119 40% 1 14.04.2028 -
Josh Nichols Oldham Athletic Aktiv 123 / 121 40% 2 08.04.2028 -
Izan Merino Málaga Aktiv 135 / 128 40% 6 27.03.2028 -
Kauã Moraes Flamengo Aktiv 140 / 131 40% 3 23.03.2028 -
Sławomir Abramowicz Jagiellonia Aktiv 140 / 150 40% 2 31.12.2027 -
Victor Hernandez Santa Fe Aktiv 126 / 136 40% 10 11.12.2027 -
Fodé Sylla Sion Aktiv 122 / 120 40% 3 09.12.2027 -
Caleb Yirenkyi Coventry City Aktiv 145 / 141 40% 6 23.11.2027 -
Jakob Schöller Altach Aktiv 105 / 112 40% 3 17.11.2027 -
Archie Gray Southampton Aktiv 143 / 159 40% 2 08.11.2027 -
Esquerdinha Notts County Aktiv 122 / 123 40% 1 02.11.2027 -
Kosta Nedeljković Aston Villa Aktiv 140 / 144 40% 4 29.10.2027 -
Corsin Konietzke St. Gallen Aktiv 114 / 122 40% 3 07.10.2027 -
Lucas Bergvall Tottenham Aktiv 149 / 155 40% 5 20.09.2027 -
Yusi Alavés Aktiv 129 / 134 40% 2 17.09.2027 -
Agustín Obregón River Plate Aktiv 123 / 108 40% 1 17.09.2027 -
Nazareno Roselli Defensa y Justicia Aktiv 105 / 115 40% 2 13.09.2027 -
Adrian Skogmar Malmo FF Aktiv 117 / 129 40% 1 01.09.2027 -
Dejan Radonjić SV Ried Aktiv 117 / 120 40% 2 31.08.2027 -
Mbekezeli Mbokazi Chicago Fire Aktiv 136 / 127 40% 3 21.08.2027 -
Sascha Britschgi AC Milan Aktiv 122 / 131 40% 3 20.08.2027 -
Ronan Kpakio AC Milan Aktiv 114 / 127 40% 1 12.08.2027 -
Givairo Read Feyenoord Aktiv 149 / 148 40% 4 09.08.2027 -
Victor Froholdt Porto Aktiv 160 / 163 40% 2 09.08.2027 -
Kees Smit AZ Aktiv 151 / 154 40% 4 29.07.2027 -
Ethan Williams Peterborough United Aktiv 109 / 116 40% 3 28.07.2027 -
Romelle Donovan Brentford Aktiv 134 / 136 40% 1 26.07.2027 -
Oscar Schwartau Norwich City Aktiv 124 / 124 40% 1 26.07.2027 -
Jonathan Asp-Jensen Deportivo La Coruña Aktiv 119 / 123 40% 1 23.07.2027 -
Ryan Oné Sheffield United Aktiv 113 / 115 40% 1 19.07.2027 -
Jan Virgili Club Brugge Aktiv 130 / 146 40% 2 17.07.2027 -
Mohamadou Kanté Crawley Town Aktiv 124 / 121 40% 1 17.07.2027 -
Louis Leroux FC Nantes Aktiv 132 / 133 40% 1 15.07.2027 -
Samuele di Benedetto Twente Aktiv 120 / 119 40% 4 09.07.2027 -
Justin Treichel Roda Aktiv 119 / 113 40% 1 05.07.2027 -
Nestory Irankunda Watford Aktiv 114 / 128 40% 1 02.07.2027 -
Leo Sauer VfB Stuttgart Aktiv 133 / 143 40% 1 26.06.2027 -
Mert Kömür FC Augsburg Aktiv 127 / 127 40% 1 25.06.2027 -
Tiago Freitas Benfica Aktiv 119 / 118 40% 1 23.06.2027 -
Nikolaus Wurmbrand Girona Aktiv 126 / 128 40% 2 19.06.2027 -
Gonçalo Oliveira Benfica Aktiv 115 / 115 40% 2 16.06.2027 -
Jens Stage Werder Bremen Aktiv 139 / 146 58% 1 07.06.2027 -
Johnny Cardoso Atlético Madrid Aktiv 151 / 154 40% 6 29.05.2027 -
James Garner Everton Aktiv 154 / 148 40% 2 29.05.2027 -
Takefusa Kubo VfB Stuttgart Aktiv 147 / 149 40% 3 28.05.2027 -
Lorenzo Colombo Genoa Aktiv 143 / 133 40% 1 28.05.2027 -
Fran García Betis Aktiv 152 / 146 40% 1 28.05.2027 -
Maximilian Beier Borussia Dortmund Aktiv 154 / 154 40% 1 26.05.2027 -
Dušan Vlahović Hamburger SV Aktiv 153 / 150 40% 5 25.05.2027 -
Thiago Brentford Aktiv 143 / 139 40% 2 25.05.2027 -
Gavi Barcelona Aktiv 167 / 164 40% 1 25.05.2027 -
Jarrad Branthwaite Everton Aktiv 161 / 161 40% 1 25.05.2027 -
Marc Pubill Atlético Madrid Aktiv 145 / 145 40% 1 23.05.2027 -
Maroan Sannadi Athletic Bilbao Aktiv 137 / 137 40% 3 22.05.2027 -
Georges Mikautadze Villarreal Aktiv 163 / 156 40% 2 21.05.2027 -
Mats Wieffer Brighton Aktiv 152 / 143 40% 3 21.05.2027 -
Omar El Hilali Espanyol Aktiv 148 / 148 40% 1 21.05.2027 -
Jonathan Dubasin Osasuna Aktiv 147 / 135 40% 4 19.05.2027 -
Marvin Keller Chelsea Aktiv 145 / 151 40% 4 19.05.2027 -
Troy Parrott Betis Aktiv 147 / 139 40% 1 19.05.2027 -
Carlos Romero Villarreal Aktiv 146 / 150 40% 3 18.05.2027 -
Andrés Martín Racing Santander Aktiv 140 / 129 40% 4 16.05.2027 -
Oliver Dovin Coventry City Aktiv 139 / 135 40% 3 16.05.2027 -
Isaac Romero Sevilla Aktiv 153 / 145 40% 6 14.05.2027 -
Pau Víctor Braga Aktiv 150 / 146 40% 4 14.05.2027 -
Adam Hložek TSG Hoffenheim Aktiv 146 / 137 40% 4 11.05.2027 -
Miloš Kerkez Liverpool Aktiv 155 / 155 40% 1 11.05.2027 -
Yussif Saidu Zaragoza Aktiv 125 / 131 40% 1 11.05.2027 -
Lewis Hall Newcastle United Aktiv 148 / 148 40% 5 09.05.2027 -
Dani Vivian Athletic Bilbao Aktiv 154 / 146 40% 1 09.05.2027 -
Quinten Timber Crystal Palace Aktiv 156 / 151 40% 1 07.05.2027 -
Charles Martin Bayern Munich Aktiv 160 / 155 40% 1 07.05.2027 -
Alphonso Davies Bayern Munich Aktiv 175 / 168 40% 3 06.05.2027 -
Giacomo Raspadori Atalanta Aktiv 153 / 151 40% 1 05.05.2027 -
Abel Ruiz Girona Aktiv 143 / 139 40% 1 04.05.2027 -
Pablo Barrios Atlético Madrid Aktiv 159 / 156 40% 2 03.05.2027 -
Roberto Fernández Braga Aktiv 144 / 144 40% 2 02.05.2027 -
Óscar Mingueza Crystal Palace Aktiv 158 / 143 40% 5 01.05.2027 -
Nico O'Reilly Manchester City Aktiv 157 / 163 40% 8 29.04.2027 -
Ousmane Diomande Nottingham Forest Aktiv 152 / 152 40% 1 29.04.2027 -
Willian Pacho Paris Saint-Germain Aktiv 160 / 161 40% 2 26.04.2027 -
Sven Botman Newcastle United Aktiv 154 / 154 40% 1 25.04.2027 -
Deniz Ertaş Konyaspor Aktiv 118 / 126 40% 2 23.04.2027 -
Nicolas Jackson Aston Villa Aktiv 146 / 155 40% 2 22.04.2027 -
Ez Abde Betis Aktiv 147 / 144 40% 1 20.04.2027 -
Doğan Alemdar Basaksehir Aktiv 102 / 107 40% 1 19.04.2027 -
Radek Vítek Middlesbrough Aktiv 129 / 138 40% 4 17.04.2027 -
João Pedro Chelsea Aktiv 143 / 145 40% 2 14.04.2027 -
José Ángel Carmona Sevilla Aktiv 144 / 145 40% 1 14.04.2027 -
Boubacar Kamara Aston Villa Aktiv 158 / 163 40% 1 14.04.2027 -
Juan Diego Castillo Vitoria Guimaraes Aktiv 127 / 120 40% 1 13.04.2027 -
Maxence Lacroix Chelsea Aktiv 146 / 157 40% 4 10.04.2027 -
Rocco Vata Watford Aktiv 131 / 121 40% 1 10.04.2027 -
Nico Schlotterbeck Borussia Dortmund Aktiv 160 / 170 40% 1 08.04.2027 -
João Neves Paris Saint-Germain Aktiv 168 / 174 40% 1 07.04.2027 -
Alex Scott Bournemouth Aktiv 153 / 155 40% 1 05.04.2027 -
Moisés Caicedo Chelsea Aktiv 171 / 170 40% 4 31.03.2027 -
Samuel Soares Benfica Aktiv 131 / 139 40% 5 30.03.2027 -
Wilson Isidor Sunderland Aktiv 141 / 132 40% 1 30.03.2027 -
Rodrigo Muniz Fulham Aktiv 138 / 145 40% 2 27.03.2027 -
Mio Backhaus SC Freiburg Aktiv 135 / 137 40% 3 24.03.2027 -
Aitor Fraga Real Sociedad Aktiv 124 / 124 40% 2 16.03.2027 -
Josh Keeley Luton Town Aktiv 131 / 123 40% 1 16.03.2027 -
Aurélien Tchouaméni Real Madrid Aktiv 160 / 168 40% 1 13.03.2027 -
Marc Guéhi Manchester City Aktiv 169 / 166 40% 1 13.03.2027 -
Joško Gvardiol Manchester City Aktiv 174 / 162 40% 1 11.03.2027 -
Jan Paul van Hecke Tottenham Aktiv 156 / 153 40% 1 10.03.2027 -
Leandrinho Sharjah Aktiv 121 / 111 40% 1 10.03.2027 -
Senne Lammens Manchester United Aktiv 151 / 151 40% 4 08.03.2027 -
Bruno Ogbus St. Pauli Aktiv 132 / 132 40% 1 08.03.2027 -
Ryan Gravenberch Liverpool Aktiv 156 / 168 40% 1 05.03.2027 -
Alexander Prass TSG Hoffenheim Aktiv 129 / 142 58% 1 02.01.2027 -
Zion Suzuki Aston Villa Aktiv 134 / 146 40% 2 30.12.2026 -
Dmytro Riznyk Racing Genk Aktiv 142 / 140 40% 1 26.12.2026 -
Hugo Ekitiké Liverpool Aktiv 168 / 166 40% 1 24.12.2026 -
Rodrygo Real Madrid Aktiv 174 / 168 40% 1 21.12.2026 -
Karl Hein Werder Bremen Aktiv 142 / 137 40% 2 18.12.2026 -
Luiz Júnior Villarreal Aktiv 141 / 147 40% 1 14.12.2026 -
Lazar Carević Famalicao Aktiv 135 / 130 40% 1 13.12.2026 -
Gabriel Brazão Santos Aktiv 119 / 141 40% 1 04.12.2026 -
James Trafford Leeds United Aktiv 151 / 144 40% 3 01.12.2026 -
Pedri Barcelona Aktiv 178 / 185 40% 1 25.11.2026 -
Arthur Avom Ebong FC Lorient Aktiv 134 / 125 40% 1 25.11.2026 -
Giorgi Mamardashvili Liverpool Aktiv 150 / 163 40% 3 19.11.2026 -
Gonzalo Crettaz NEC Aktiv 128 / 127 40% 1 19.11.2026 -
Lautaro Vargas Unión de Santa Fe Aktiv 115 / 114 40% 2 18.11.2026 -
Francisco Conceição Köln Aktiv 160 / 169 40% 1 15.11.2026 -
Nico Williams Athletic Bilbao Aktiv 174 / 167 40% 1 13.11.2026 -
Hugo Souza Corinthians Aktiv 124 / 144 40% 3 11.11.2026 -
Mads Hermansen West Ham United Aktiv 132 / 137 40% 1 07.11.2026 -
Samuel Marques Grasshopper Aktiv 118 / 110 40% 1 07.11.2026 -
Caoimhin Kelleher Brentford Aktiv 154 / 153 40% 1 05.11.2026 -
Mile Svilar AS Roma Aktiv 169 / 148 40% 1 28.10.2026 -
Grégoire Coudert Burnley Aktiv 122 / 123 40% 1 25.10.2026 -
Kauã Santos Eintracht Frankfurt Aktiv 137 / 129 40% 1 24.10.2026 -
Valentino Ilsanker Mattersburg Aktiv 104 / 116 40% 1 19.10.2026 -
Khvicha Kvaratskhelia Paris Saint-Germain Aktiv 161 / 173 40% 1 19.10.2026 -
Michael Olise Bayern Munich Aktiv 183 / 179 40% 1 17.10.2026 -
Pablo Campos Levante Aktiv 131 / 136 40% 1 11.10.2026 -
Anthony Patterson Wrexham Aktiv 120 / 129 40% 1 08.10.2026 -
Valentín Aguiñagalde Temperley Aktiv 117 / 123 40% 1 08.10.2026 -
Yaimar Medina Racing Genk Aktiv 123 / 121 40% 1 07.10.2026 -